Hlavní strana
METAR-TAF:

METAR-TAF

Letiště :

Letiště Rijeka

Rijeka, Chorvatsko

zeměpisná šířka: 45-13N, zeměpisná délka: 014-35E, výška: 85 m

Aktuální stav počasí

Zpráva byla vytvořena před 6 minutami, v 21:00 UTC
Východoseverovýchodní vítr 4 kt, proměnlivý mezi severním a jihovýchodním
Teplota 22°C
Vlhkost vzduchu 60%
Tlak 1020 hPa
Viditelnost 10 km a více
Žádná oblačnost pod 1500 m, nevyskytují se cumulonimby.

METAR: LDRI 262100Z 07004KT 360V140 CAVOK 22/14 Q1020

Čas: 23:06 (21:06 UTC)

Předpověď počasí

Zpráva byla vytvořena před 3 hodinami a 41 minutami, v 17:25 UTC
Předpověď platná od 26 v 18 UTC do 27 v 18 UTC
vítr z různých směrů 2 kt
Viditelnost 10 km a více
Žádná oblačnost pod 1500 m, nevyskytují se cumulonimby.
Změna
od 27 v 10 UTC do 27 v 12 UTC
Severozápadní vítr 7 kt
Změna
od 27 v 16 UTC do 27 v 18 UTC
vítr z různých směrů 2 kt

TAF: LDRI 261725Z 2618/2718 VRB02KT CAVOK TX28/2714Z TN19/2703Z BECMG 2710/2712 32007KT BECMG 2716/2718 VRB02KT

Stav a předpovědi počasí z více než 4 000 letišť (zprávy METAR a TAF).

Červené a žluté tečky na mapě představují dostupné meteorologické stanice.

Když kurzor umístíte na tečku, zobrazí se název stanice.

Pak kliknutím zobrazíte stav a předpověď počasí.

Chcete-li změnit mapu, kliknutím na zelené tlačítko se znaménkem +mapu přiblížíte, kliknutím na zelené tlačítko se znaménkem – mapu oddálíte a kliknutím na zelené šipky přejdete na sousední mapy.


METAR-TAF: